Main page
METAR-TAF:

METAR-TAF

Airports :

Logroño–Agoncillo Airport

Logroño, Spain

latitude: 42-27N, longitude: 002-20W, elevation: 353 m

Current weather observation

The report was made 37 minutes ago, at 12:30 UTC
Wind 3 kt from the East, varying between North and Southeast
Temperature 8°C
Humidity 93%
Pressure 1010 hPa
Visibility 10 km or more
Few clouds at a height of 600 ft
Broken clouds at a height of 800 ft

METAR: LELO 211230Z 08003KT 350V130 9999 FEW006 BKN008 08/07 Q1010

Time: 14:07 (13:07 UTC)

Forecast

The report was made 2 hours and 7 minutes ago, at 11:00 UTC
Forecast valid from 21 at 12 UTC to 21 at 21 UTC
Wind 4 kt from variable directions
Visibility 10 km or more
Scattered clouds at a height of 2000 ft
Broken clouds at a height of 3500 ft
Probability 30% :
Temporary
from 21 at 12 UTC to 21 at 15 UTC
Visibility: 4000 m
Broken clouds at a height of 800 ft
rain, mist

TAF: LELO 211100Z 2112/2121 VRB04KT 9999 SCT020 BKN035 PROB30 TEMPO 2112/2115 4000 RA BR BKN008

Weather observations and forecasts of more than 4000 airports (METAR and TAF reports).

The available stations are represented by yellow and red dots on the map.

Hover mouse over dot to see the name of the station.

Then click to see weather observations and forecasts.

To change the map : click on the green buttons with a black cross to zoom in, on the green button with a dash to zoom out, or on the green arrows for adjacent maps.


METAR-TAF: